createdAt,value
2022-08-24T00:00:27.947Z,99.90
2022-08-24T00:02:58.622Z,99.90
2022-08-24T00:05:29.715Z,99.90
2022-08-24T00:08:00.305Z,99.90
2022-08-24T00:10:31.145Z,99.90
2022-08-24T00:13:01.843Z,99.90
2022-08-24T00:15:32.596Z,99.90
2022-08-24T00:18:03.518Z,99.90
2022-08-24T00:20:34.481Z,99.90
2022-08-24T00:23:05.631Z,99.90
2022-08-24T00:25:37.220Z,99.90
2022-08-24T00:28:08.265Z,99.90
2022-08-24T00:30:38.857Z,99.90
2022-08-24T00:33:09.470Z,99.90
2022-08-24T00:35:40.769Z,99.90
2022-08-24T00:38:11.805Z,99.90
2022-08-24T00:40:45.456Z,99.90
2022-08-24T00:43:17.913Z,99.90
2022-08-24T00:45:51.666Z,99.90
2022-08-24T00:48:26.161Z,99.90
2022-08-24T00:51:00.127Z,99.90
2022-08-24T00:53:34.352Z,99.90
2022-08-24T00:56:09.215Z,99.90
2022-08-24T00:58:42.870Z,99.90
2022-08-24T01:01:14.849Z,99.90
2022-08-24T01:03:46.642Z,99.90
2022-08-24T01:06:17.349Z,99.90
2022-08-24T01:08:48.091Z,99.90
2022-08-24T01:11:23.780Z,99.90
2022-08-24T01:13:56.288Z,99.90
2022-08-24T01:16:44.888Z,99.90
2022-08-24T01:19:19.513Z,99.90
2022-08-24T01:21:54.601Z,99.90
2022-08-24T01:24:25.191Z,99.90
2022-08-24T01:26:55.830Z,99.90
2022-08-24T01:29:31.070Z,99.90
2022-08-24T01:32:02.113Z,99.90
2022-08-24T01:34:32.740Z,99.90
2022-08-24T01:37:05.176Z,99.90
2022-08-24T01:39:38.748Z,99.90
2022-08-24T01:42:10.608Z,99.90
2022-08-24T01:44:44.021Z,99.90
2022-08-24T01:47:16.524Z,99.90
2022-08-24T01:49:49.595Z,99.90
2022-08-24T01:52:23.229Z,99.90
2022-08-24T01:54:54.738Z,99.90
2022-08-24T01:57:28.481Z,99.90
2022-08-24T01:59:59.201Z,99.90
2022-08-24T02:02:32.092Z,99.90
2022-08-24T02:05:03.355Z,99.90
2022-08-24T02:07:34.027Z,99.90
2022-08-24T02:10:06.549Z,99.90
2022-08-24T02:12:39.024Z,99.90
2022-08-24T02:15:12.934Z,99.90
2022-08-24T02:17:44.225Z,99.90
2022-08-24T02:20:14.988Z,99.90
2022-08-24T02:22:45.795Z,99.90
2022-08-24T02:25:17.002Z,99.90
2022-08-24T02:27:47.979Z,99.90
2022-08-24T02:30:18.938Z,99.90
2022-08-24T02:32:49.557Z,99.90
2022-08-24T02:35:20.693Z,99.90
2022-08-24T02:37:52.461Z,99.90
2022-08-24T02:40:24.488Z,99.90
2022-08-24T02:42:55.974Z,99.90
2022-08-24T02:45:26.670Z,99.90
2022-08-24T02:47:59.110Z,99.90
2022-08-24T02:50:29.984Z,99.90
2022-08-24T02:53:00.573Z,99.90
2022-08-24T02:55:31.286Z,99.90
2022-08-24T02:58:01.880Z,99.90
2022-08-24T03:00:33.059Z,99.90
2022-08-24T03:03:04.279Z,99.90
2022-08-24T03:05:35.299Z,99.90
2022-08-24T03:08:06.608Z,99.90
2022-08-24T03:10:38.097Z,99.90
2022-08-24T03:13:09.417Z,99.90
2022-08-24T03:15:40.300Z,99.90
2022-08-24T03:18:11.058Z,99.90
2022-08-24T03:20:44.150Z,99.90
2022-08-24T03:23:14.738Z,99.90
2022-08-24T03:25:45.729Z,99.90
2022-08-24T03:28:16.555Z,99.90
2022-08-24T03:30:48.902Z,99.90
2022-08-24T03:33:21.907Z,99.90
2022-08-24T03:35:53.598Z,99.90
2022-08-24T03:38:24.299Z,99.90
2022-08-24T03:40:54.878Z,99.90
2022-08-24T03:43:43.517Z,99.90
2022-08-24T03:46:14.538Z,99.90
2022-08-24T03:48:45.543Z,99.90
2022-08-24T03:51:18.958Z,99.90
2022-08-24T03:53:49.674Z,99.90
2022-08-24T03:56:21.071Z,99.90
2022-08-24T03:58:51.684Z,99.90
2022-08-24T04:01:22.734Z,99.90
2022-08-24T04:03:54.342Z,99.90
2022-08-24T04:06:25.520Z,99.90
2022-08-24T04:08:57.029Z,99.90
2022-08-24T04:11:30.272Z,99.90
2022-08-24T04:14:01.652Z,99.90
2022-08-24T04:16:32.518Z,99.90
2022-08-24T04:19:03.341Z,99.90
2022-08-24T04:21:36.595Z,99.90
2022-08-24T04:24:09.846Z,99.90
2022-08-24T04:26:45.232Z,99.90
2022-08-24T04:29:16.041Z,99.90
2022-08-24T04:31:46.972Z,99.90
2022-08-24T04:34:18.803Z,99.90
2022-08-24T04:36:49.629Z,99.90
2022-08-24T04:39:20.357Z,99.90
2022-08-24T04:41:51.303Z,99.90
2022-08-24T04:44:22.296Z,99.90
2022-08-24T04:49:32.906Z,99.90
2022-08-24T04:52:04.225Z,99.90
2022-08-24T04:57:15.987Z,99.90
2022-08-24T04:59:44.885Z,99.90
2022-08-24T05:02:15.770Z,99.90
2022-08-24T05:04:46.498Z,99.90
2022-08-24T05:07:18.623Z,99.90
2022-08-24T05:09:49.307Z,99.90
2022-08-24T05:12:21.765Z,99.90
2022-08-24T05:14:52.687Z,99.90
2022-08-24T05:17:23.412Z,99.90
2022-08-24T05:22:31.050Z,99.90
2022-08-24T05:25:03.048Z,99.90
2022-08-24T05:27:36.083Z,99.90
2022-08-24T05:30:09.188Z,99.90
2022-08-24T05:32:40.158Z,99.90
2022-08-24T05:35:12.047Z,99.90
2022-08-24T05:37:44.194Z,99.90
2022-08-24T05:40:18.529Z,99.90
2022-08-24T05:42:50.522Z,99.90
2022-08-24T05:45:21.616Z,99.90
2022-08-24T05:47:52.301Z,99.90
2022-08-24T05:50:23.131Z,99.90
2022-08-24T05:52:53.992Z,99.90
2022-08-24T05:55:24.893Z,99.90
2022-08-24T05:57:56.309Z,99.90
2022-08-24T06:00:27.237Z,99.90
2022-08-24T06:02:58.137Z,99.90
2022-08-24T06:05:29.086Z,99.90
2022-08-24T06:08:01.327Z,99.90
2022-08-24T06:10:36.609Z,99.90
2022-08-24T06:13:05.701Z,99.90
2022-08-24T06:15:37.226Z,99.90
2022-08-24T06:18:09.508Z,99.90
2022-08-24T06:20:43.593Z,99.90
2022-08-24T06:23:15.871Z,99.90
2022-08-24T06:26:04.044Z,99.90
2022-08-24T06:28:34.689Z,99.90
2022-08-24T06:31:08.217Z,99.90
2022-08-24T06:33:38.839Z,99.90
2022-08-24T06:36:10.740Z,99.90
2022-08-24T06:38:41.564Z,99.90
2022-08-24T06:41:13.958Z,99.90
2022-08-24T06:43:44.659Z,99.90
2022-08-24T06:46:15.424Z,99.90
2022-08-24T06:48:46.406Z,99.90
2022-08-24T06:51:19.103Z,99.90
2022-08-24T06:53:50.833Z,99.90
2022-08-24T06:59:02.753Z,99.90
2022-08-24T07:01:34.171Z,99.90
2022-08-24T07:04:05.245Z,99.90
2022-08-24T07:06:38.134Z,99.90
2022-08-24T07:09:08.884Z,99.90
2022-08-24T07:11:39.931Z,99.90
2022-08-24T07:14:10.733Z,99.90
2022-08-24T07:16:41.621Z,99.90
2022-08-24T07:19:12.446Z,99.90
2022-08-24T07:21:43.774Z,99.90
2022-08-24T07:24:15.345Z,99.90
2022-08-24T07:26:46.445Z,99.90
2022-08-24T07:29:45.805Z,99.90
2022-08-24T07:31:49.958Z,99.90
2022-08-24T07:34:20.887Z,99.90
2022-08-24T07:36:52.610Z,99.90
2022-08-24T07:39:23.448Z,99.90
2022-08-24T07:42:13.351Z,99.90
2022-08-24T07:44:27.045Z,99.90
2022-08-24T07:47:10.400Z,99.90
2022-08-24T07:49:37.188Z,99.90
2022-08-24T07:52:05.967Z,99.90
2022-08-24T07:54:36.668Z,99.90
2022-08-24T07:57:08.153Z,99.90
2022-08-24T07:59:39.634Z,99.90
2022-08-24T08:02:11.831Z,99.90
2022-08-24T08:04:43.574Z,99.90
2022-08-24T08:07:14.961Z,99.90
2022-08-24T08:09:46.492Z,99.90
2022-08-24T08:12:17.165Z,99.90
2022-08-24T08:14:48.928Z,99.90
2022-08-24T08:17:19.667Z,99.90
2022-08-24T08:19:51.264Z,99.90
2022-08-24T08:22:40.881Z,99.90
2022-08-24T08:25:12.462Z,99.90
2022-08-24T08:30:16.472Z,99.90
2022-08-24T08:32:47.268Z,99.90
2022-08-24T08:35:19.331Z,99.90
2022-08-24T08:37:50.738Z,99.90
2022-08-24T08:40:27.591Z,99.90
2022-08-24T08:43:03.053Z,99.90
2022-08-24T08:45:38.718Z,99.90
2022-08-24T08:49:03.836Z,99.90
2022-08-24T08:51:56.806Z,99.90
2022-08-24T08:54:43.733Z,99.90
2022-08-24T08:57:25.990Z,99.90
2022-08-24T09:00:07.069Z,99.90
2022-08-24T09:02:56.794Z,99.90
2022-08-24T09:08:44.137Z,99.90
2022-08-24T09:11:19.891Z,99.90
2022-08-24T09:17:25.008Z,99.90
2022-08-24T09:20:11.587Z,99.90
2022-08-24T09:22:46.887Z,99.90
2022-08-24T09:25:26.894Z,99.90
2022-08-24T09:28:16.445Z,99.90
2022-08-24T09:31:00.279Z,99.90
2022-08-24T09:33:34.586Z,99.90
2022-08-24T09:36:12.633Z,99.90
2022-08-24T09:39:08.440Z,99.90
2022-08-24T09:42:22.599Z,99.90
2022-08-24T09:45:31.762Z,99.90
2022-08-24T09:51:24.560Z,99.90
2022-08-24T09:54:49.525Z,99.90
2022-08-24T09:58:02.462Z,99.90
2022-08-24T10:00:23.881Z,99.90
2022-08-24T10:03:21.742Z,99.90
2022-08-24T10:06:07.457Z,99.90
2022-08-24T10:09:12.446Z,99.90
2022-08-24T10:11:47.975Z,99.90
2022-08-24T10:14:22.866Z,99.90
2022-08-24T10:16:57.172Z,99.90
2022-08-24T10:19:57.353Z,99.90
2022-08-24T10:22:36.277Z,99.90
2022-08-24T10:25:15.541Z,99.90
2022-08-24T10:27:54.146Z,99.90
2022-08-24T10:31:02.111Z,99.90
2022-08-24T10:33:35.901Z,99.90
2022-08-24T10:36:37.399Z,99.90
2022-08-24T10:39:45.992Z,99.90
2022-08-24T10:42:47.922Z,99.90
2022-08-24T10:45:30.643Z,99.90
2022-08-24T10:48:14.479Z,99.90
2022-08-24T10:50:54.663Z,99.90
2022-08-24T10:53:31.234Z,99.90
2022-08-24T10:58:55.645Z,99.90
2022-08-24T11:01:31.459Z,99.90
2022-08-24T11:04:07.400Z,99.90
2022-08-24T11:06:40.832Z,99.90
2022-08-24T11:09:19.219Z,99.90
2022-08-24T11:11:48.688Z,99.90
2022-08-24T11:14:29.387Z,99.90
2022-08-24T11:17:17.034Z,99.90
2022-08-24T11:19:48.684Z,99.90
2022-08-24T11:22:32.470Z,99.90
2022-08-24T11:25:06.913Z,99.90
2022-08-24T11:27:40.427Z,99.90
2022-08-24T11:30:17.449Z,99.90
2022-08-24T11:32:51.034Z,99.90
2022-08-24T11:35:26.260Z,99.90
2022-08-24T11:38:00.992Z,99.90
2022-08-24T11:40:34.623Z,99.90
2022-08-24T11:43:26.616Z,99.90
2022-08-24T11:46:06.730Z,99.90
2022-08-24T11:48:43.117Z,99.90
2022-08-24T11:51:17.687Z,99.50
2022-08-24T11:53:54.184Z,99.90
2022-08-24T11:59:08.613Z,99.80
2022-08-24T12:04:34.438Z,99.90
2022-08-24T12:07:11.563Z,98.30
2022-08-24T12:10:01.896Z,96.70
2022-08-24T12:12:36.358Z,97.00
2022-08-24T12:15:10.747Z,98.40
2022-08-24T12:17:44.494Z,96.30
2022-08-24T12:20:22.235Z,96.30
2022-08-24T12:22:55.895Z,97.80
2022-08-24T12:25:47.358Z,97.90
2022-08-24T12:28:21.285Z,96.90
2022-08-24T12:30:54.145Z,97.50
2022-08-24T12:33:28.096Z,96.80
2022-08-24T12:36:02.936Z,96.40
2022-08-24T12:38:37.052Z,98.20
2022-08-24T12:41:17.723Z,97.30
2022-08-24T12:43:47.141Z,95.60
2022-08-24T12:46:19.814Z,95.00
2022-08-24T12:48:55.133Z,96.60
2022-08-24T12:51:29.788Z,96.50
2022-08-24T12:54:16.496Z,95.90
2022-08-24T12:57:13.559Z,97.30
2022-08-24T12:59:47.536Z,97.50
2022-08-24T13:02:39.357Z,98.60
2022-08-24T13:05:18.071Z,97.70
2022-08-24T13:07:51.277Z,97.60
2022-08-24T13:10:43.148Z,98.10
2022-08-24T13:13:23.437Z,97.70
2022-08-24T13:19:16.169Z,98.70
2022-08-24T13:21:58.798Z,99.90
2022-08-24T13:25:01.048Z,97.10
2022-08-24T13:28:13.173Z,97.90
2022-08-24T13:31:07.889Z,98.60
2022-08-24T13:33:42.597Z,95.60
2022-08-24T13:36:47.629Z,95.10
2022-08-24T13:39:30.427Z,94.60
2022-08-24T13:45:06.532Z,94.40
2022-08-24T13:47:49.113Z,94.20
2022-08-24T13:50:34.670Z,93.50
2022-08-24T13:53:17.556Z,93.60
2022-08-24T13:55:51.197Z,93.20
2022-08-24T13:58:35.879Z,92.60
2022-08-24T14:01:10.292Z,91.00
2022-08-24T14:04:00.245Z,93.30
2022-08-24T14:06:35.925Z,91.70
2022-08-24T14:12:14.491Z,91.70
2022-08-24T14:14:55.358Z,91.70
2022-08-24T14:17:48.706Z,89.90
2022-08-24T14:20:32.625Z,88.10
2022-08-24T14:23:07.407Z,88.70
2022-08-24T14:25:39.485Z,90.50
2022-08-24T14:28:39.814Z,87.60
2022-08-24T14:31:21.492Z,85.90
2022-08-24T14:34:00.115Z,86.30
2022-08-24T14:36:43.847Z,86.20
2022-08-24T14:39:24.720Z,84.60
2022-08-24T14:42:02.345Z,89.00
2022-08-24T14:44:54.246Z,88.90
2022-08-24T14:47:30.557Z,87.40
2022-08-24T14:50:12.097Z,85.80
2022-08-24T14:53:03.106Z,81.70
2022-08-24T14:55:38.201Z,84.60
2022-08-24T14:58:30.546Z,81.30
2022-08-24T15:01:43.491Z,84.60
2022-08-24T15:04:38.094Z,81.50
2022-08-24T15:07:26.345Z,82.50
2022-08-24T15:09:59.432Z,80.30
2022-08-24T15:12:37.385Z,82.20
2022-08-24T15:15:24.025Z,83.70
2022-08-24T15:18:01.255Z,84.20
2022-08-24T15:23:32.140Z,83.30
2022-08-24T15:26:06.238Z,81.50
2022-08-24T15:28:38.855Z,82.10
2022-08-24T15:31:14.638Z,81.30
2022-08-24T15:33:56.706Z,79.20
2022-08-24T15:36:30.247Z,83.10
2022-08-24T15:39:02.024Z,82.70
2022-08-24T15:41:35.727Z,83.80
2022-08-24T15:44:09.625Z,79.40
2022-08-24T15:46:43.501Z,81.90
2022-08-24T15:49:18.468Z,86.20
2022-08-24T15:51:53.442Z,89.30
2022-08-24T15:54:35.803Z,89.20
2022-08-24T15:57:09.340Z,87.90
2022-08-24T15:59:50.364Z,89.10
2022-08-24T16:02:30.577Z,87.50
2022-08-24T16:08:13.634Z,89.70
2022-08-24T16:10:46.703Z,91.30
2022-08-24T16:13:25.347Z,91.90
2022-08-24T16:16:03.502Z,92.10
2022-08-24T16:18:51.352Z,91.30
2022-08-24T16:21:25.428Z,91.90
2022-08-24T16:24:02.384Z,91.40
2022-08-24T16:26:37.655Z,91.40
2022-08-24T16:29:08.530Z,90.90
2022-08-24T16:31:49.379Z,91.50
2022-08-24T16:34:25.007Z,91.30
2022-08-24T16:36:56.218Z,90.90
2022-08-24T16:39:27.988Z,92.50
2022-08-24T16:42:03.590Z,93.30
2022-08-24T16:44:38.330Z,93.60
2022-08-24T16:47:10.260Z,93.20
2022-08-24T16:49:41.338Z,93.10
2022-08-24T16:52:30.593Z,93.60
2022-08-24T16:55:01.703Z,93.60
2022-08-24T16:57:36.496Z,93.20
2022-08-24T17:00:12.557Z,93.20
2022-08-24T17:02:43.582Z,93.70
2022-08-24T17:05:14.580Z,93.20
2022-08-24T17:07:46.289Z,93.70
2022-08-24T17:10:20.120Z,93.80
2022-08-24T17:12:52.387Z,93.50
2022-08-24T17:15:23.751Z,93.30
2022-08-24T17:18:00.247Z,93.70
2022-08-24T17:20:31.685Z,93.80
2022-08-24T17:23:02.383Z,94.00
2022-08-24T17:25:33.965Z,94.60
2022-08-24T17:28:05.927Z,94.20
2022-08-24T17:30:36.928Z,94.40
2022-08-24T17:33:07.526Z,94.60
2022-08-24T17:35:40.698Z,94.80
2022-08-24T17:38:12.143Z,95.20
2022-08-24T17:40:42.794Z,96.50
2022-08-24T17:43:14.429Z,98.50
2022-08-24T17:45:45.469Z,99.90
2022-08-24T17:48:19.353Z,99.90
2022-08-24T17:50:50.038Z,99.90
2022-08-24T17:53:21.285Z,99.90
2022-08-24T17:55:52.189Z,99.90
2022-08-24T17:58:23.236Z,99.90
2022-08-24T18:00:53.941Z,99.90
2022-08-24T18:03:24.993Z,99.90
2022-08-24T18:05:55.540Z,99.90
2022-08-24T18:08:27.260Z,99.90
2022-08-24T18:10:59.039Z,99.90
2022-08-24T18:13:29.635Z,99.90
2022-08-24T18:16:00.503Z,99.90
2022-08-24T18:18:31.291Z,99.90
2022-08-24T18:21:01.906Z,99.90
2022-08-24T18:23:32.469Z,99.90
2022-08-24T18:26:04.716Z,99.90
2022-08-24T18:28:37.043Z,99.90
2022-08-24T18:31:07.876Z,99.90
2022-08-24T18:33:38.583Z,99.90
2022-08-24T18:36:10.246Z,99.90
2022-08-24T18:38:40.867Z,99.90
2022-08-24T18:41:12.828Z,99.90
2022-08-24T18:43:43.502Z,99.90
2022-08-24T18:46:14.402Z,99.90
2022-08-24T18:48:45.141Z,99.90
2022-08-24T18:51:17.976Z,99.90
2022-08-24T18:53:49.103Z,99.90
2022-08-24T18:56:20.146Z,99.90
2022-08-24T18:58:51.426Z,99.90
2022-08-24T19:01:23.575Z,99.90
2022-08-24T19:03:55.224Z,99.90
2022-08-24T19:06:27.044Z,99.90
2022-08-24T19:08:58.594Z,99.90
2022-08-24T19:11:29.811Z,99.90
2022-08-24T19:14:02.578Z,99.90
2022-08-24T19:16:37.162Z,99.90
2022-08-24T19:19:08.111Z,99.90
2022-08-24T19:21:41.135Z,99.90
2022-08-24T19:24:12.338Z,99.90
2022-08-24T19:26:43.381Z,99.90
2022-08-24T19:29:14.304Z,99.90
2022-08-24T19:31:45.341Z,99.90
2022-08-24T19:34:16.694Z,99.90
2022-08-24T19:36:48.716Z,99.90
2022-08-24T19:39:19.942Z,99.90
2022-08-24T19:41:53.396Z,99.90
2022-08-24T19:44:47.343Z,99.90
2022-08-24T19:47:15.124Z,99.90
2022-08-24T19:49:46.261Z,99.90
2022-08-24T19:52:18.236Z,99.90
2022-08-24T19:54:49.830Z,99.90
2022-08-24T19:57:52.176Z,99.90
2022-08-24T20:00:30.710Z,99.90
2022-08-24T20:03:03.484Z,99.90
2022-08-24T20:05:35.842Z,99.90
2022-08-24T20:08:07.889Z,99.90
2022-08-24T20:10:41.249Z,99.90
2022-08-24T20:13:11.825Z,99.90
2022-08-24T20:15:43.188Z,99.90
2022-08-24T20:18:15.000Z,99.90
2022-08-24T20:20:46.379Z,99.90
2022-08-24T20:23:18.393Z,99.90
2022-08-24T20:25:49.275Z,99.90
2022-08-24T20:28:30.061Z,99.90
2022-08-24T20:30:53.368Z,99.90
2022-08-24T20:33:25.040Z,99.90
2022-08-24T20:35:56.517Z,99.90
2022-08-24T20:38:31.694Z,99.90
2022-08-24T20:41:01.565Z,99.90
2022-08-24T20:43:32.240Z,99.90
2022-08-24T20:46:02.839Z,99.90
2022-08-24T20:48:37.374Z,99.90
2022-08-24T20:51:08.138Z,99.90
2022-08-24T20:53:38.843Z,99.90
2022-08-24T20:56:12.960Z,99.90
2022-08-24T20:58:44.713Z,99.90
2022-08-24T21:01:15.330Z,99.90
2022-08-24T21:03:46.076Z,99.90
2022-08-24T21:06:21.651Z,99.90
2022-08-24T21:08:54.887Z,99.90
2022-08-24T21:11:25.635Z,99.90
2022-08-24T21:13:56.198Z,99.90
2022-08-24T21:16:27.361Z,99.90
2022-08-24T21:18:58.337Z,99.90
2022-08-24T21:21:29.024Z,99.90
2022-08-24T21:23:59.597Z,99.90
2022-08-24T21:26:32.896Z,99.90
2022-08-24T21:29:06.007Z,99.90
2022-08-24T21:31:37.074Z,99.90
2022-08-24T21:34:26.613Z,99.90
2022-08-24T21:36:58.362Z,99.90
2022-08-24T21:39:30.624Z,99.90
2022-08-24T21:42:01.417Z,99.90
2022-08-24T21:44:31.976Z,99.90
2022-08-24T21:47:21.285Z,99.90
2022-08-24T21:49:51.892Z,99.90
2022-08-24T21:52:22.735Z,99.90
2022-08-24T21:54:53.620Z,99.90
2022-08-24T21:57:24.768Z,99.90
2022-08-24T21:59:55.389Z,99.90
2022-08-24T22:02:26.142Z,99.90
2022-08-24T22:04:57.272Z,99.90
2022-08-24T22:07:28.115Z,99.90
2022-08-24T22:09:58.822Z,99.90
2022-08-24T22:12:29.796Z,99.90
2022-08-24T22:15:00.464Z,99.90
2022-08-24T22:17:31.245Z,99.90
2022-08-24T22:20:01.905Z,99.90
2022-08-24T22:22:32.592Z,99.90
2022-08-24T22:25:03.606Z,99.90
2022-08-24T22:27:34.502Z,99.90
2022-08-24T22:30:06.227Z,99.90
2022-08-24T22:32:36.888Z,99.90
2022-08-24T22:35:09.277Z,99.90
2022-08-24T22:37:40.454Z,99.90
2022-08-24T22:40:13.739Z,99.90
2022-08-24T22:42:44.490Z,99.90
2022-08-24T22:45:15.762Z,99.90
2022-08-24T22:47:46.375Z,99.90
2022-08-24T22:50:17.266Z,99.90
2022-08-24T22:52:47.833Z,99.90
2022-08-24T22:55:18.482Z,99.90
2022-08-24T22:57:51.221Z,99.90
2022-08-24T23:00:23.042Z,99.90
2022-08-24T23:02:53.615Z,99.90
2022-08-24T23:05:24.625Z,99.90
2022-08-24T23:07:55.244Z,99.90
2022-08-24T23:10:26.650Z,99.90
2022-08-24T23:12:57.253Z,99.90
2022-08-24T23:15:27.856Z,99.90
2022-08-24T23:17:58.495Z,99.90
2022-08-24T23:20:29.073Z,99.90
2022-08-24T23:22:59.672Z,99.90
2022-08-24T23:25:30.272Z,99.90
2022-08-24T23:28:01.365Z,99.90
2022-08-24T23:30:31.946Z,99.90
2022-08-24T23:33:02.766Z,99.90
2022-08-24T23:35:33.490Z,99.90
2022-08-24T23:38:04.259Z,99.90
2022-08-24T23:40:35.004Z,99.90
2022-08-24T23:43:05.702Z,99.90
2022-08-24T23:45:38.870Z,99.90
2022-08-24T23:48:09.697Z,99.90
2022-08-24T23:50:40.349Z,99.90
2022-08-24T23:53:10.963Z,99.90
2022-08-24T23:55:42.122Z,99.90
2022-08-24T23:58:12.703Z,99.90
